Terminal Aerodrome Forecast
Issued by NWS Tampa Bay Area, FL

Home | Current Version | Previous Version | Text Only | Print | Product List | Glossary On
Versions: 1 2 3 4 5 6 7 8 9 10 11 12
237
FTUS42 KTBW 101127
TAFFMY
TAF
KFMY 101127Z 1012/1112 03007KT P6SM BKN060
     FM101800 31011KT P6SM SCT060
     FM110000 32007KT P6SM FEW060
     FM110500 VRB03KT P6SM SKC=

USA.gov is the U.S. government's official web portal to all federal, state and local government web resources and services.